Time;durP1;ratioP1;P1;durP2;ratioP2;P2;SDS_P1;SDS_P2;PMS_P1;PMS_P2;Temp;Humidity;BMP_temperature;BMP_pressure;BME280_temperature;BME280_humidity;BME280_pressure;Samples;Min_cycle;Max_cycle;Signal;HPM_P1;HPM_P2
2020/12/26 00:01:51;;;;;;;3.45;2.40;;;17.20;54.70;;;;;;5065110;28;20687;-62
2020/12/26 00:04:17;;;;;;;2.83;2.30;;;17.20;54.80;;;;;;5064407;28;20603;-62
2020/12/26 00:06:42;;;;;;;2.60;2.20;;;17.20;54.80;;;;;;5064515;28;20470;-61
2020/12/26 00:09:09;;;;;;;4.10;2.53;;;17.20;54.80;;;;;;5064534;28;20213;-61
2020/12/26 00:11:34;;;;;;;3.63;2.40;;;17.10;54.70;;;;;;5064613;28;20206;-61
2020/12/26 00:14:00;;;;;;;2.97;2.17;;;17.20;54.80;;;;;;5064622;28;20213;-62
2020/12/26 00:16:25;;;;;;;3.22;2.10;;;17.10;54.70;;;;;;5064363;28;20701;-61
2020/12/26 00:18:51;;;;;;;2.72;2.13;;;17.10;54.70;;;;;;5064689;28;21033;-62
2020/12/26 00:21:17;;;;;;;2.58;1.98;;;17.10;54.80;;;;;;5064343;28;20325;-62
2020/12/26 00:23:42;;;;;;;3.63;2.53;;;17.10;54.70;;;;;;5064612;28;20186;-62
2020/12/26 00:26:08;;;;;;;3.15;2.28;;;17.10;54.70;;;;;;5046449;28;20232;-62
2020/12/26 00:28:34;;;;;;;2.97;2.08;;;17.00;54.80;;;;;;5064217;28;20267;-61
2020/12/26 00:31:01;;;;;;;2.25;2.00;;;17.10;54.70;;;;;;5064158;28;20236;-61
2020/12/26 00:33:26;;;;;;;3.05;2.05;;;17.00;54.80;;;;;;5064248;28;20939;-61
2020/12/26 00:35:52;;;;;;;2.92;2.10;;;17.00;54.70;;;;;;5064171;28;20174;-62
2020/12/26 00:38:18;;;;;;;4.05;2.22;;;17.00;54.70;;;;;;5064207;28;20217;-61
2020/12/26 00:40:43;;;;;;;3.13;2.30;;;16.90;54.70;;;;;;5064082;28;20175;-62
2020/12/26 00:43:09;;;;;;;3.20;2.08;;;17.00;54.70;;;;;;5046217;28;20224;-62
2020/12/26 00:45:34;;;;;;;2.58;2.20;;;17.00;54.70;;;;;;5046251;28;20584;-62
2020/12/26 00:48:00;;;;;;;2.42;2.22;;;17.00;54.60;;;;;;5064077;28;21048;-62
2020/12/26 00:50:25;;;;;;;3.80;2.25;;;16.90;54.60;;;;;;5064343;28;20650;-62
2020/12/26 00:52:51;;;;;;;2.53;2.30;;;16.90;54.60;;;;;;5064122;28;20537;-62
2020/12/26 00:55:16;;;;;;;2.50;1.88;;;16.90;54.70;;;;;;5064048;28;20520;-63
2020/12/26 00:57:42;;;;;;;3.40;2.40;;;16.90;54.70;;;;;;5064039;28;20185;-63
2020/12/26 01:00:09;;;;;;;3.22;2.42;;;16.90;54.70;;;;;;5064020;28;20174;-62
2020/12/26 01:02:34;;;;;;;2.70;2.25;;;16.90;54.70;;;;;;5046418;28;20212;-62
2020/12/26 01:05:00;;;;;;;3.78;2.55;;;16.90;54.70;;;;;;5064030;28;20612;-61
2020/12/26 01:07:25;;;;;;;3.20;2.10;;;16.80;54.70;;;;;;5063952;28;20206;-61
2020/12/26 01:09:51;;;;;;;2.25;1.90;;;16.80;54.70;;;;;;5063808;28;20210;-63
2020/12/26 01:12:17;;;;;;;2.13;1.92;;;16.80;54.70;;;;;;5064128;28;20204;-61
2020/12/26 01:14:42;;;;;;;2.50;2.30;;;16.80;54.70;;;;;;5064212;28;20190;-63
2020/12/26 01:17:09;;;;;;;3.95;2.58;;;16.80;54.70;;;;;;5067635;28;20214;-62
2020/12/26 01:19:35;;;;;;;2.38;2.17;;;16.80;54.70;;;;;;5067860;28;20581;-61
2020/12/26 01:22:00;;;;;;;2.88;2.17;;;16.80;54.70;;;;;;5067645;28;20199;-61
2020/12/26 01:24:26;;;;;;;2.33;2.13;;;16.80;54.70;;;;;;5067874;28;20687;-61
2020/12/26 01:26:51;;;;;;;2.50;2.20;;;16.80;54.70;;;;;;5068105;28;20592;-61
2020/12/26 01:29:17;;;;;;;3.00;2.38;;;16.70;54.70;;;;;;5067839;28;20644;-61
2020/12/26 01:31:43;;;;;;;2.83;2.13;;;16.80;54.70;;;;;;5050003;28;20171;-60
2020/12/26 01:34:09;;;;;;;2.40;2.10;;;16.70;54.70;;;;;;5049495;28;20690;-60
2020/12/26 01:36:34;;;;;;;2.60;2.40;;;16.70;54.70;;;;;;5067339;28;20198;-61
2020/12/26 01:39:00;;;;;;;3.33;2.30;;;16.70;54.70;;;;;;5067428;28;20524;-61
2020/12/26 01:41:25;;;;;;;2.33;1.73;;;16.70;54.60;;;;;;5049504;28;20243;-62
2020/12/26 01:43:58;;;;;;;2.25;2.05;;;16.70;54.70;;;;;;5067640;28;20174;-62
2020/12/26 01:46:27;;;;;;;2.45;2.22;;;16.70;54.70;;;;;;5067303;28;20171;-61
2020/12/26 01:48:52;;;;;;;2.55;2.20;;;16.70;54.70;;;;;;5049670;28;20198;-62
2020/12/26 01:51:19;;;;;;;3.45;2.85;;;16.70;54.70;;;;;;5067356;28;20232;-62
2020/12/26 01:53:45;;;;;;;3.35;2.50;;;16.60;54.60;;;;;;5067656;28;20174;-61
2020/12/26 01:56:10;;;;;;;3.05;2.38;;;16.70;54.70;;;;;;5032992;28;20179;-62
2020/12/26 01:58:36;;;;;;;3.53;2.67;;;16.60;54.70;;;;;;5067041;28;20175;-62
2020/12/26 02:01:02;;;;;;;4.43;2.75;;;16.60;54.60;;;;;;5033120;28;20178;-61
2020/12/26 02:03:27;;;;;;;3.20;2.67;;;16.60;54.70;;;;;;5066953;28;20261;-61
2020/12/26 02:05:54;;;;;;;3.63;2.22;;;16.60;54.60;;;;;;5067577;28;20545;-61
2020/12/26 02:08:19;;;;;;;2.80;2.53;;;16.70;54.70;;;;;;5067112;28;20685;-61
2020/12/26 02:10:45;;;;;;;2.42;2.20;;;16.60;54.70;;;;;;5049295;28;20182;-62
2020/12/26 02:13:10;;;;;;;2.63;2.40;;;16.60;54.70;;;;;;5066860;28;20175;-61
2020/12/26 02:15:36;;;;;;;3.55;2.60;;;16.60;54.70;;;;;;5066955;28;20183;-63
2020/12/26 02:18:01;;;;;;;2.47;2.25;;;16.60;54.60;;;;;;5066860;28;20181;-61
2020/12/26 02:20:27;;;;;;;4.90;3.03;;;16.50;54.70;;;;;;5066643;28;20210;-63
2020/12/26 02:22:53;;;;;;;3.60;2.60;;;16.50;54.60;;;;;;5066645;28;20175;-62
2020/12/26 02:25:18;;;;;;;2.35;2.15;;;16.60;54.70;;;;;;5066652;28;21000;-62
2020/12/26 02:27:44;;;;;;;2.53;2.33;;;16.50;54.60;;;;;;5066337;28;20577;-62
2020/12/26 02:30:09;;;;;;;2.58;2.38;;;16.50;54.60;;;;;;5066452;28;20463;-59
2020/12/26 02:32:35;;;;;;;2.85;2.38;;;16.50;54.70;;;;;;5066437;28;20296;-61
2020/12/26 02:35:00;;;;;;;2.60;2.20;;;16.50;54.70;;;;;;5066183;28;20178;-61
2020/12/26 02:37:26;;;;;;;2.92;2.47;;;16.50;54.70;;;;;;5066316;28;20191;-62
2020/12/26 02:39:52;;;;;;;3.35;2.15;;;16.50;54.70;;;;;;5066257;28;20278;-62
2020/12/26 02:42:17;;;;;;;2.30;2.03;;;16.50;54.70;;;;;;5066519;28;20171;-62
2020/12/26 02:44:43;;;;;;;1.90;1.80;;;16.40;54.60;;;;;;5066477;28;20328;-61
2020/12/26 02:47:08;;;;;;;2.55;2.35;;;16.50;54.70;;;;;;5065956;28;20186;-63
2020/12/26 02:49:34;;;;;;;2.90;2.35;;;16.50;54.70;;;;;;5065953;28;20202;-62
2020/12/26 02:51:59;;;;;;;2.90;2.10;;;16.50;54.70;;;;;;5066112;28;20182;-62
2020/12/26 02:54:25;;;;;;;2.55;2.30;;;16.50;54.70;;;;;;5065694;28;20182;-61
2020/12/26 02:56:51;;;;;;;2.50;2.30;;;16.40;54.70;;;;;;5066215;28;20170;-61
2020/12/26 02:59:16;;;;;;;3.42;2.38;;;16.40;54.70;;;;;;5065776;28;20177;-61
2020/12/26 03:01:42;;;;;;;2.75;2.20;;;16.40;54.70;;;;;;5066088;28;20182;-61
2020/12/26 03:04:07;;;;;;;2.13;2.03;;;16.40;54.70;;;;;;5065933;28;20254;-61
2020/12/26 03:06:33;;;;;;;2.80;2.45;;;16.40;54.70;;;;;;5065596;28;20210;-61
2020/12/26 03:08:58;;;;;;;3.20;2.40;;;16.40;54.70;;;;;;5065805;28;20209;-60
2020/12/26 03:11:24;;;;;;;3.67;2.30;;;16.40;54.70;;;;;;5065679;28;20540;-62
2020/12/26 03:13:49;;;;;;;3.08;2.03;;;16.40;54.70;;;;;;5065848;28;20174;-61
2020/12/26 03:16:15;;;;;;;3.50;2.38;;;16.40;54.70;;;;;;5065703;28;20178;-61
2020/12/26 03:18:41;;;;;;;2.47;2.17;;;16.40;54.70;;;;;;5047822;28;20185;-60
2020/12/26 03:21:06;;;;;;;2.30;2.10;;;16.30;54.70;;;;;;5065931;28;20171;-62
2020/12/26 03:23:32;;;;;;;3.25;2.53;;;16.30;54.70;;;;;;5065358;28;20205;-62
2020/12/26 03:25:57;;;;;;;2.67;2.38;;;16.40;54.70;;;;;;5065307;28;20177;-61
2020/12/26 03:28:23;;;;;;;2.28;2.05;;;16.30;54.70;;;;;;5065418;28;20245;-61
2020/12/26 03:30:48;;;;;;;3.28;2.55;;;16.30;54.80;;;;;;5065372;28;20644;-61
2020/12/26 03:33:14;;;;;;;2.38;2.17;;;16.30;54.80;;;;;;5065525;28;20191;-59
2020/12/26 03:35:39;;;;;;;2.50;2.30;;;16.30;54.70;;;;;;5065369;28;20258;-60
2020/12/26 03:38:05;;;;;;;3.60;2.10;;;16.30;54.80;;;;;;5064524;28;20178;-61
2020/12/26 03:40:30;;;;;;;2.53;2.33;;;16.30;54.80;;;;;;5065137;28;20175;-62
2020/12/26 03:42:56;;;;;;;2.30;2.10;;;16.30;54.80;;;;;;5065411;28;20281;-61
2020/12/26 03:45:22;;;;;;;2.30;2.10;;;16.30;54.80;;;;;;5065107;28;20178;-63
2020/12/26 03:47:47;;;;;;;2.33;2.13;;;16.20;54.70;;;;;;5046787;28;20182;-62
2020/12/26 03:50:13;;;;;;;2.75;2.35;;;16.20;54.70;;;;;;5064954;28;20209;-62
2020/12/26 03:52:38;;;;;;;2.50;2.25;;;16.20;54.70;;;;;;5064850;28;20182;-62
2020/12/26 03:55:04;;;;;;;2.55;2.25;;;16.20;54.70;;;;;;5064832;28;20182;-62
2020/12/26 03:57:29;;;;;;;2.30;2.10;;;16.30;54.70;;;;;;5065032;28;20281;-62
2020/12/26 03:59:55;;;;;;;2.60;2.40;;;16.20;54.70;;;;;;5064771;28;20552;-62
2020/12/26 04:02:20;;;;;;;3.40;2.50;;;16.20;54.70;;;;;;5064623;28;20179;-61
2020/12/26 04:04:46;;;;;;;3.55;2.33;;;16.20;54.70;;;;;;5064582;28;20282;-62
2020/12/26 04:07:11;;;;;;;2.70;2.50;;;16.20;54.80;;;;;;5064831;28;20251;-61
2020/12/26 04:09:37;;;;;;;2.50;2.30;;;16.20;54.70;;;;;;5064440;28;20210;-61
2020/12/26 04:12:03;;;;;;;2.53;2.22;;;16.20;54.80;;;;;;5046678;28;20174;-61
2020/12/26 04:14:28;;;;;;;2.30;2.10;;;16.20;54.80;;;;;;5064547;28;20214;-62
2020/12/26 04:16:57;;;;;;;3.53;2.22;;;16.20;54.80;;;;;;5064430;28;20200;-62
2020/12/26 04:19:24;;;;;;;2.17;1.98;;;16.10;54.80;;;;;;5064373;28;20175;-62
2020/12/26 04:21:49;;;;;;;2.47;2.15;;;16.10;54.80;;;;;;5064474;28;20201;-62
2020/12/26 04:24:15;;;;;;;2.50;1.88;;;16.10;54.80;;;;;;5064612;28;20178;-62
2020/12/26 04:26:40;;;;;;;2.42;1.83;;;16.10;54.80;;;;;;5064616;28;20178;-62
2020/12/26 04:29:06;;;;;;;2.65;2.13;;;16.10;54.80;;;;;;5064189;28;20232;-61
2020/12/26 04:31:32;;;;;;;2.55;2.00;;;16.10;54.80;;;;;;5064085;28;20235;-62
2020/12/26 04:33:58;;;;;;;2.55;2.30;;;16.10;54.80;;;;;;5063850;28;20229;-62
2020/12/26 04:36:24;;;;;;;2.58;2.22;;;16.10;54.80;;;;;;5064533;28;20202;-62
2020/12/26 04:38:49;;;;;;;3.17;2.30;;;16.10;54.80;;;;;;5064218;28;20185;-62
2020/12/26 04:41:16;;;;;;;2.38;2.00;;;16.00;54.80;;;;;;5063937;28;20217;-63
2020/12/26 04:43:41;;;;;;;2.30;2.10;;;16.10;54.80;;;;;;5029792;28;20163;-63
2020/12/26 04:46:17;;;;;;;2.40;2.10;;;16.00;54.80;;;;;;5063751;28;20178;-63
2020/12/26 04:48:48;;;;;;;2.28;2.08;;;16.00;54.90;;;;;;5047240;28;20352;-62
2020/12/26 04:51:16;;;;;;;2.50;2.03;;;16.00;54.90;;;;;;5046295;28;20213;-62
2020/12/26 04:53:43;;;;;;;2.38;2.25;;;16.00;54.90;;;;;;5046511;28;20174;-62
2020/12/26 04:56:08;;;;;;;3.17;2.15;;;16.00;54.90;;;;;;5030042;28;20937;-62
2020/12/26 04:58:34;;;;;;;2.60;2.25;;;16.00;54.80;;;;;;5029397;28;20170;-61
2020/12/26 05:01:00;;;;;;;2.05;1.85;;;16.00;54.80;;;;;;5046123;28;20357;-61
2020/12/26 05:03:27;;;;;;;2.22;2.03;;;16.00;54.90;;;;;;5063796;28;20638;-60
2020/12/26 05:05:59;;;;;;;3.10;1.92;;;16.00;54.90;;;;;;5063878;28;20179;-61
2020/12/26 05:08:25;;;;;;;2.20;1.80;;;16.00;54.90;;;;;;5046920;28;20206;-60
2020/12/26 05:10:50;;;;;;;2.95;1.90;;;15.90;54.80;;;;;;5064214;28;20171;-61
2020/12/26 05:13:16;;;;;;;3.15;2.30;;;15.90;54.90;;;;;;5045882;28;20231;-61
2020/12/26 05:15:41;;;;;;;2.03;1.63;;;15.90;54.90;;;;;;5064086;28;20262;-61
2020/12/26 05:18:07;;;;;;;2.55;2.22;;;15.90;54.90;;;;;;5064067;28;20243;-62
2020/12/26 05:20:33;;;;;;;2.22;1.70;;;15.90;54.90;;;;;;5046405;28;20923;-62
2020/12/26 05:23:14;;;;;;;2.20;2.00;;;15.90;54.90;;;;;;5063686;28;20613;-61
2020/12/26 05:25:44;;;;;;;2.15;1.92;;;15.90;54.90;;;;;;5063863;28;20213;-60
2020/12/26 05:28:12;;;;;;;2.30;2.10;;;15.90;54.90;;;;;;5045740;28;20236;-60
2020/12/26 05:30:39;;;;;;;1.98;1.75;;;15.90;54.90;;;;;;5063854;28;20206;-60
2020/12/26 05:33:05;;;;;;;1.98;1.88;;;15.80;54.80;;;;;;5063565;28;20644;-60
2020/12/26 05:35:44;;;;;;;1.92;1.80;;;15.90;54.90;;;;;;5063562;28;20171;-61
2020/12/26 05:38:20;;;;;;;2.00;1.55;;;15.80;54.90;;;;;;5063933;28;20185;-61
2020/12/26 05:40:49;;;;;;;2.70;2.00;;;15.80;54.90;;;;;;5063795;28;20272;-62
2020/12/26 05:43:16;;;;;;;2.20;1.83;;;15.80;54.90;;;;;;5063581;28;20185;-61
2020/12/26 05:45:42;;;;;;;1.83;1.55;;;15.80;54.90;;;;;;5063801;28;20171;-62
2020/12/26 05:48:11;;;;;;;2.40;2.10;;;15.80;54.90;;;;;;5063565;28;20205;-62
2020/12/26 05:50:38;;;;;;;1.75;1.65;;;15.80;54.80;;;;;;5063402;28;20167;-61
2020/12/26 05:53:03;;;;;;;1.65;1.55;;;15.80;54.90;;;;;;5063554;28;20182;-60
2020/12/26 05:55:39;;;;;;;2.08;1.88;;;15.80;54.90;;;;;;5029023;28;20198;-60
2020/12/26 05:58:04;;;;;;;1.90;1.70;;;15.80;55.00;;;;;;5063635;28;20174;-61
2020/12/26 06:00:34;;;;;;;2.13;1.92;;;15.80;55.00;;;;;;5063138;28;20180;-61
2020/12/26 06:03:01;;;;;;;1.80;1.70;;;15.80;55.00;;;;;;5066841;28;20190;-61
2020/12/26 06:05:27;;;;;;;1.70;1.60;;;15.80;55.20;;;;;;5032808;28;20179;-61
2020/12/26 06:07:52;;;;;;;2.38;1.73;;;16.00;55.20;;;;;;5067122;28;20178;-61
2020/12/26 06:10:18;;;;;;;1.60;1.50;;;16.20;55.20;;;;;;5049171;28;20277;-61
2020/12/26 06:12:43;;;;;;;1.65;1.55;;;16.60;55.00;;;;;;5066894;28;20202;-61
2020/12/26 06:15:09;;;;;;;1.92;1.83;;;16.90;54.60;;;;;;5032146;28;20182;-61
2020/12/26 06:17:34;;;;;;;1.55;1.45;;;17.30;53.80;;;;;;5032599;28;20182;-62
2020/12/26 06:20:04;;;;;;;1.60;1.50;;;17.60;53.10;;;;;;5066414;28;20496;-62
2020/12/26 06:22:46;;;;;;;1.52;1.40;;;17.90;52.60;;;;;;5066685;28;20173;-60
2020/12/26 06:25:13;;;;;;;1.90;1.40;;;18.10;52.10;;;;;;5066860;28;20224;-62
2020/12/26 06:27:52;;;;;;;1.25;1.15;;;18.30;51.80;;;;;;5066578;28;20189;-61
2020/12/26 06:30:19;;;;;;;2.10;1.42;;;18.60;51.50;;;;;;5066641;28;20178;-61
2020/12/26 06:32:45;;;;;;;2.75;1.77;;;18.60;51.40;;;;;;5066388;28;20261;-60
2020/12/26 06:35:11;;;;;;;2.35;1.48;;;18.70;51.40;;;;;;5066428;28;20175;-62
2020/12/26 06:37:37;;;;;;;1.40;1.30;;;18.70;51.30;;;;;;5032100;28;20185;-61
2020/12/26 06:40:30;;;;;;;1.35;1.25;;;18.70;51.30;;;;;;5066241;28;20209;-61
2020/12/26 06:42:56;;;;;;;1.35;1.25;;;18.70;51.40;;;;;;5048437;28;20180;-62
2020/12/26 06:45:35;;;;;;;1.27;1.23;;;18.70;51.40;;;;;;5066462;28;20175;-63
2020/12/26 06:48:01;;;;;;;1.42;1.20;;;18.80;51.50;;;;;;5048552;28;20174;-63
2020/12/26 06:50:32;;;;;;;1.45;1.33;;;18.70;51.50;;;;;;5065979;28;20625;-62
2020/12/26 06:52:58;;;;;;;1.83;1.30;;;18.70;51.50;;;;;;5065998;28;20257;-62
2020/12/26 06:55:42;;;;;;;1.10;1.00;;;18.70;51.60;;;;;;5065887;28;20245;-63
2020/12/26 06:58:23;;;;;;;1.05;1.05;;;18.70;51.70;;;;;;5065888;28;20488;-61
2020/12/26 07:00:49;;;;;;;1.13;1.10;;;18.70;51.70;;;;;;5066060;28;20690;-62
2020/12/26 07:03:19;;;;;;;1.55;1.42;;;18.60;51.80;;;;;;5065894;28;20197;-62
2020/12/26 07:05:45;;;;;;;1.50;1.40;;;18.60;51.80;;;;;;5065572;28;20209;-61
2020/12/26 07:08:32;;;;;;;1.45;1.30;;;18.60;51.80;;;;;;5065820;28;20289;-61
2020/12/26 07:11:00;;;;;;;1.38;1.27;;;18.60;51.90;;;;;;5066050;28;20209;-61
2020/12/26 07:13:45;;;;;;;1.52;1.40;;;18.40;52.10;;;;;;5047503;28;20614;-62
2020/12/26 07:16:35;;;;;;;1.40;1.30;;;18.30;52.30;;;;;;5065463;28;20182;-61
2020/12/26 07:19:19;;;;;;;0.88;0.88;;;18.20;52.50;;;;;;5065457;28;20247;-63
2020/12/26 07:22:20;;;;;;;1.30;1.20;;;18.10;52.70;;;;;;5065462;28;20668;-61
2020/12/26 07:24:49;;;;;;;1.88;1.10;;;18.10;52.80;;;;;;5065421;28;20174;-62
2020/12/26 07:27:31;;;;;;;1.10;1.10;;;18.10;52.90;;;;;;5065521;28;20364;-61
2020/12/26 07:30:10;;;;;;;1.00;0.98;;;18.00;52.90;;;;;;5065602;28;20356;-62
2020/12/26 07:32:35;;;;;;;1.30;1.20;;;18.10;52.90;;;;;;5065181;28;20175;-61
2020/12/26 07:35:05;;;;;;;1.70;1.23;;;18.10;52.80;;;;;;5065135;28;20170;-61
2020/12/26 07:37:30;;;;;;;1.05;1.00;;;18.10;52.80;;;;;;5065420;28;20227;-62
2020/12/26 07:39:56;;;;;;;1.10;1.00;;;18.10;52.80;;;;;;5065307;28;20178;-63
2020/12/26 07:42:25;;;;;;;1.10;0.98;;;18.20;52.70;;;;;;5065378;28;20175;-62
2020/12/26 07:44:50;;;;;;;0.93;0.90;;;18.20;52.60;;;;;;5047634;28;20253;-62
2020/12/26 07:47:16;;;;;;;1.45;1.10;;;18.20;52.60;;;;;;5047392;28;20253;-63
2020/12/26 07:49:42;;;;;;;1.17;1.10;;;18.20;52.70;;;;;;5064745;28;20210;-62
2020/12/26 07:52:08;;;;;;;1.17;1.00;;;18.10;52.70;;;;;;5064918;28;20178;-63
2020/12/26 07:54:34;;;;;;;1.38;1.20;;;18.10;52.90;;;;;;5064813;28;20167;-62
2020/12/26 07:57:00;;;;;;;1.55;0.98;;;18.00;53.00;;;;;;5064984;28;20174;-61
2020/12/26 07:59:25;;;;;;;1.00;1.00;;;17.80;53.10;;;;;;5064805;28;20178;-62
2020/12/26 08:01:52;;;;;;;1.45;1.10;;;17.80;53.20;;;;;;5064793;28;20249;-62
2020/12/26 08:04:17;;;;;;;1.55;1.20;;;17.80;53.30;;;;;;5064485;28;20265;-62
2020/12/26 08:06:43;;;;;;;1.42;1.15;;;17.80;53.20;;;;;;5047078;28;20254;-62
2020/12/26 08:09:09;;;;;;;1.10;1.00;;;17.90;53.30;;;;;;5030439;28;20246;-61
2020/12/26 08:11:34;;;;;;;1.05;1.00;;;17.90;53.30;;;;;;5047030;28;20258;-62
2020/12/26 08:14:00;;;;;;;1.08;0.95;;;17.90;53.10;;;;;;5064309;28;20185;-63
2020/12/26 08:16:26;;;;;;;1.05;0.95;;;17.90;53.10;;;;;;5064659;28;20173;-61
2020/12/26 08:18:51;;;;;;;2.05;1.27;;;17.90;53.10;;;;;;5064282;28;20189;-62
2020/12/26 08:21:26;;;;;;;1.23;1.13;;;17.90;53.10;;;;;;5046624;28;20180;-63
2020/12/26 08:23:55;;;;;;;1.48;0.98;;;17.80;53.20;;;;;;5045943;28;20181;-63
2020/12/26 08:26:21;;;;;;;1.20;1.10;;;17.70;53.30;;;;;;5064662;28;20187;-62
2020/12/26 08:28:47;;;;;;;1.05;1.05;;;17.70;53.50;;;;;;5046460;28;20209;-62
2020/12/26 08:31:12;;;;;;;1.05;0.90;;;17.60;53.50;;;;;;5029769;28;20171;-62
2020/12/26 08:33:38;;;;;;;1.40;1.10;;;17.60;53.60;;;;;;5045982;28;20182;-67
2020/12/26 08:36:23;;;;;;;1.40;1.30;;;17.60;53.60;;;;;;5029985;28;20171;-66
2020/12/26 08:38:59;;;;;;;2.25;1.50;;;17.60;53.40;;;;;;5049157;28;20216;-66
2020/12/26 08:41:25;;;;;;;2.13;1.45;;;17.60;53.10;;;;;;5031400;28;20208;-66
2020/12/26 08:43:50;;;;;;;1.40;1.17;;;17.60;53.00;;;;;;5064267;28;20592;-67
2020/12/26 08:46:17;;;;;;;1.92;1.30;;;17.50;52.80;;;;;;5064323;28;20178;-65
2020/12/26 08:48:43;;;;;;;2.28;1.65;;;17.40;52.90;;;;;;5063877;28;20648;-66
2020/12/26 08:51:19;;;;;;;1.58;1.48;;;17.40;53.00;;;;;;5063860;28;20190;-66
2020/12/26 08:53:45;;;;;;;1.77;1.48;;;17.40;53.00;;;;;;5046144;28;20185;-66
2020/12/26 08:56:11;;;;;;;1.50;1.40;;;17.40;52.90;;;;;;5063509;28;20244;-64
2020/12/26 08:58:36;;;;;;;1.30;1.20;;;17.40;52.90;;;;;;5063925;28;20930;-66
2020/12/26 09:01:03;;;;;;;1.45;1.35;;;17.40;52.80;;;;;;5063882;28;20170;-66
2020/12/26 09:03:30;;;;;;;3.28;1.40;;;17.40;52.70;;;;;;5064200;28;20177;-65
2020/12/26 09:05:57;;;;;;;2.83;1.80;;;17.40;52.60;;;;;;5064063;28;20213;-65
2020/12/26 09:08:33;;;;;;;3.13;1.83;;;17.50;52.50;;;;;;5063849;28;20342;-66
2020/12/26 09:11:11;;;;;;;1.83;1.50;;;17.50;52.60;;;;;;5047120;28;20182;-66
2020/12/26 09:13:38;;;;;;;3.03;1.63;;;17.50;52.70;;;;;;5063936;28;20170;-63
2020/12/26 09:16:05;;;;;;;2.28;1.95;;;17.40;52.70;;;;;;5063857;28;20170;-64
2020/12/26 09:18:35;;;;;;;1.92;1.60;;;17.30;52.80;;;;;;5063994;28;20185;-61
2020/12/26 09:21:01;;;;;;;3.63;1.60;;;17.30;53.00;;;;;;5063804;28;20181;-66
2020/12/26 09:23:34;;;;;;;2.20;1.70;;;17.40;53.20;;;;;;5063937;28;20170;-64
2020/12/26 09:26:10;;;;;;;3.88;1.90;;;17.40;53.20;;;;;;5063705;28;20185;-64
2020/12/26 09:28:49;;;;;;;3.97;1.73;;;17.40;53.00;;;;;;5063672;28;20214;-60
2020/12/26 09:31:16;;;;;;;5.30;1.73;;;17.50;53.00;;;;;;5063669;28;20214;-64
2020/12/26 09:33:42;;;;;;;2.05;1.67;;;17.50;53.10;;;;;;5063674;28;20235;-63
2020/12/26 09:36:12;;;;;;;2.78;1.85;;;17.60;53.00;;;;;;5063668;28;20175;-65
2020/12/26 09:38:38;;;;;;;5.30;1.92;;;17.60;52.80;;;;;;5067335;28;20193;-65
2020/12/26 09:41:17;;;;;;;4.63;1.33;;;17.70;52.90;;;;;;5067561;28;20185;-65
2020/12/26 09:43:44;;;;;;;5.80;1.80;;;17.70;53.00;;;;;;5067155;28;20265;-65
2020/12/26 09:46:09;;;;;;;3.80;1.70;;;17.80;53.00;;;;;;5043179;28;20179;-66
2020/12/26 09:48:35;;;;;;;3.80;1.58;;;17.90;53.10;;;;;;5055444;28;20206;-65
2020/12/26 09:51:01;;;;;;;4.60;1.63;;;18.00;53.00;;;;;;5056932;28;20198;-66
2020/12/26 09:53:26;;;;;;;4.55;2.00;;;18.20;52.80;;;;;;5037745;28;20172;-65
2020/12/26 09:55:52;;;;;;;2.80;1.50;;;18.40;52.50;;;;;;5056871;28;20170;-65
2020/12/26 09:58:18;;;;;;;2.85;1.50;;;18.70;52.00;;;;;;5053924;28;20878;-65
2020/12/26 10:00:44;;;;;;;3.38;1.30;;;18.90;51.80;;;;;;5056837;28;20225;-65
2020/12/26 10:03:09;;;;;;;3.88;1.75;;;19.10;51.50;;;;;;5055934;28;20597;-66
2020/12/26 10:05:35;;;;;;;3.22;1.50;;;19.30;51.30;;;;;;5037704;28;20181;-64
2020/12/26 10:08:00;;;;;;;2.88;1.45;;;19.40;51.20;;;;;;5057189;28;20202;-64
2020/12/26 10:10:26;;;;;;;2.35;1.35;;;19.50;51.10;;;;;;5057212;28;20190;-64
2020/12/26 10:12:52;;;;;;;2.97;1.08;;;19.60;50.90;;;;;;5057057;28;21792;-64
2020/12/26 10:15:18;;;;;;;3.47;1.63;;;19.70;50.90;;;;;;5056308;28;20186;-64
2020/12/26 10:17:47;;;;;;;2.80;1.58;;;19.80;50.70;;;;;;5055543;28;20186;-64
2020/12/26 10:20:12;;;;;;;1.30;1.10;;;19.90;50.60;;;;;;5040498;28;20174;-64
2020/12/26 10:22:38;;;;;;;1.40;1.02;;;19.90;50.80;;;;;;5050857;28;20179;-65
2020/12/26 10:25:03;;;;;;;1.23;1.00;;;19.80;50.80;;;;;;5046348;28;20190;-64
2020/12/26 10:27:29;;;;;;;2.60;1.38;;;19.80;51.00;;;;;;5012067;28;20651;-64
2020/12/26 10:29:55;;;;;;;3.05;1.20;;;19.80;51.10;;;;;;5028250;28;20203;-65
2020/12/26 10:32:20;;;;;;;1.95;1.02;;;19.60;51.20;;;;;;5046280;28;20309;-65
2020/12/26 10:34:46;;;;;;;2.40;1.30;;;19.60;51.40;;;;;;5054932;28;20210;-65
2020/12/26 10:37:15;;;;;;;2.40;1.10;;;19.60;51.40;;;;;;5055543;28;20223;-64
2020/12/26 10:39:41;;;;;;;3.47;1.20;;;19.60;51.60;;;;;;5066509;28;20171;-66
2020/12/26 10:42:07;;;;;;;1.63;1.02;;;19.60;51.50;;;;;;5033296;28;20621;-65
2020/12/26 10:44:32;;;;;;;2.35;1.15;;;19.60;51.60;;;;;;5045905;28;20179;-65
2020/12/26 10:46:58;;;;;;;1.77;1.33;;;19.50;51.70;;;;;;5045976;28;20168;-66
2020/12/26 10:49:23;;;;;;;2.47;1.00;;;19.50;51.60;;;;;;5050150;28;20263;-65
2020/12/26 10:51:49;;;;;;;1.48;1.17;;;19.40;51.70;;;;;;5048326;28;20178;-66
2020/12/26 10:54:15;;;;;;;2.17;1.40;;;19.50;51.80;;;;;;5066024;28;21012;-65
2020/12/26 10:56:47;;;;;;;2.38;1.10;;;19.50;51.80;;;;;;5065868;28;20179;-65
2020/12/26 10:59:13;;;;;;;2.40;1.10;;;19.50;51.50;;;;;;5066090;28;20175;-65
2020/12/26 11:01:38;;;;;;;2.35;1.08;;;19.60;51.50;;;;;;5048095;28;20181;-65
2020/12/26 11:04:04;;;;;;;1.10;1.00;;;19.60;51.50;;;;;;5048129;28;20175;-64
2020/12/26 11:06:30;;;;;;;2.38;1.00;;;19.60;51.40;;;;;;5061011;28;20307;-64
2020/12/26 11:08:55;;;;;;;1.63;0.88;;;19.70;51.40;;;;;;5045596;28;20724;-64
2020/12/26 11:11:21;;;;;;;2.00;1.02;;;19.70;51.30;;;;;;5045771;28;20891;-66
2020/12/26 11:13:46;;;;;;;1.80;1.30;;;19.70;51.30;;;;;;5027783;28;20531;-65
2020/12/26 11:16:15;;;;;;;2.20;1.13;;;19.70;51.40;;;;;;5045624;28;20189;-64
2020/12/26 11:18:42;;;;;;;1.80;0.85;;;19.70;51.30;;;;;;5028393;28;20615;-65
2020/12/26 11:21:08;;;;;;;2.35;1.20;;;19.80;51.20;;;;;;5045049;28;20285;-66
2020/12/26 11:23:33;;;;;;;2.65;1.48;;;19.80;51.30;;;;;;5045709;28;20175;-66
2020/12/26 11:25:59;;;;;;;1.00;0.90;;;19.70;51.20;;;;;;5052223;28;20186;-65
2020/12/26 11:28:25;;;;;;;1.63;1.00;;;19.70;51.30;;;;;;5042728;28;20652;-66
2020/12/26 11:30:50;;;;;;;1.88;1.25;;;19.80;51.30;;;;;;5045347;28;20175;-65
2020/12/26 11:33:16;;;;;;;1.20;1.00;;;19.80;51.40;;;;;;5036541;28;20179;-65
2020/12/26 11:35:42;;;;;;;0.93;0.88;;;19.80;51.30;;;;;;5065195;28;20198;-65
2020/12/26 11:38:08;;;;;;;3.10;1.02;;;19.80;51.30;;;;;;5064701;28;20206;-65
2020/12/26 11:40:33;;;;;;;1.00;1.00;;;19.80;51.30;;;;;;5042707;28;20225;-66
2020/12/26 11:42:59;;;;;;;1.40;1.00;;;19.70;51.30;;;;;;5045674;28;20182;-65
2020/12/26 11:45:24;;;;;;;1.63;1.10;;;19.80;51.40;;;;;;5065018;28;20174;-66
2020/12/26 11:47:50;;;;;;;1.88;1.00;;;19.70;51.40;;;;;;5064831;28;20177;-66
2020/12/26 11:50:15;;;;;;;1.10;1.00;;;19.70;51.50;;;;;;5064728;28;20675;-71
2020/12/26 11:52:41;;;;;;;1.50;1.10;;;19.60;51.40;;;;;;5064880;28;20534;-65
2020/12/26 11:55:06;;;;;;;1.88;0.90;;;19.50;51.10;;;;;;5064635;28;20174;-66
2020/12/26 11:57:32;;;;;;;1.67;0.93;;;19.40;51.10;;;;;;5064723;28;20183;-65
2020/12/26 11:59:57;;;;;;;2.28;1.05;;;19.40;51.40;;;;;;5045649;28;20262;-65
2020/12/26 12:02:23;;;;;;;0.93;0.93;;;19.30;51.50;;;;;;5044761;28;20182;-65
2020/12/26 12:04:49;;;;;;;1.40;1.02;;;19.30;51.60;;;;;;5044602;28;20182;-65
2020/12/26 12:07:15;;;;;;;0.85;0.85;;;19.20;51.70;;;;;;5044914;28;20277;-67
2020/12/26 12:09:40;;;;;;;2.63;1.02;;;19.30;51.70;;;;;;5045086;28;20313;-66
2020/12/26 12:12:07;;;;;;;1.90;1.00;;;19.30;51.80;;;;;;5010448;28;20270;-66
2020/12/26 12:14:33;;;;;;;1.38;1.05;;;19.30;51.80;;;;;;5044708;28;20211;-64
2020/12/26 12:16:58;;;;;;;2.75;0.80;;;19.30;51.90;;;;;;5044807;28;20233;-65
2020/12/26 12:19:24;;;;;;;2.33;0.88;;;19.30;51.90;;;;;;5044478;28;20186;-66
2020/12/26 12:21:49;;;;;;;2.75;1.33;;;19.30;51.80;;;;;;5044540;28;20186;-65
2020/12/26 12:24:15;;;;;;;1.95;0.90;;;19.30;51.90;;;;;;5044543;28;20175;-66
2020/12/26 12:26:40;;;;;;;1.25;1.00;;;19.30;52.00;;;;;;5044476;28;20175;-66
2020/12/26 12:29:06;;;;;;;1.20;1.10;;;19.30;52.10;;;;;;5044406;28;20229;-67
2020/12/26 12:31:36;;;;;;;2.15;1.10;;;19.30;51.90;;;;;;5044445;28;20258;-70
2020/12/26 12:34:01;;;;;;;2.03;1.17;;;19.30;51.60;;;;;;5061507;28;20262;-64
2020/12/26 12:36:27;;;;;;;2.38;1.25;;;19.30;51.50;;;;;;5064477;28;20258;-65
2020/12/26 12:38:53;;;;;;;1.67;0.90;;;19.30;51.50;;;;;;5064386;28;20206;-65
2020/12/26 12:41:18;;;;;;;2.72;1.23;;;19.40;51.50;;;;;;5053668;28;20244;-66
2020/12/26 12:43:44;;;;;;;2.38;1.17;;;19.30;51.50;;;;;;5026331;28;20633;-66
2020/12/26 12:46:10;;;;;;;2.38;1.25;;;19.40;51.50;;;;;;5026641;28;20270;-65
2020/12/26 12:48:36;;;;;;;1.23;1.00;;;19.40;51.40;;;;;;5044379;28;20194;-65